sensor_id;sensor_type;location;lat;lon;timestamp;P1;durP1;ratioP1;P2;durP2;ratioP2
77148;SDS011;66122;47.130;16.844;2024-01-15T00:09:09;0.10;;;0.10;;
77148;SDS011;66122;47.130;16.844;2024-01-15T00:19:12;0.20;;;0.10;;
77148;SDS011;66122;47.130;16.844;2024-01-15T00:29:15;0.20;;;0.10;;
77148;SDS011;66122;47.130;16.844;2024-01-15T00:39:17;0.10;;;0.10;;
77148;SDS011;66122;47.130;16.844;2024-01-15T00:49:20;0.10;;;0.10;;
77148;SDS011;66122;47.130;16.844;2024-01-15T00:59:22;0.10;;;0.10;;
77148;SDS011;66122;47.130;16.844;2024-01-15T01:09:25;0.10;;;0.10;;
77148;SDS011;66122;47.130;16.844;2024-01-15T01:19:27;0.10;;;0.10;;
77148;SDS011;66122;47.130;16.844;2024-01-15T01:29:30;0.20;;;0.10;;
77148;SDS011;66122;47.130;16.844;2024-01-15T01:39:33;0.20;;;0.10;;
77148;SDS011;66122;47.130;16.844;2024-01-15T01:49:36;0.20;;;0.10;;
77148;SDS011;66122;47.130;16.844;2024-01-15T01:59:39;0.10;;;0.10;;
77148;SDS011;66122;47.130;16.844;2024-01-15T02:09:44;0.10;;;0.10;;
77148;SDS011;66122;47.130;16.844;2024-01-15T02:19:49;0.20;;;0.10;;
77148;SDS011;66122;47.130;16.844;2024-01-15T02:29:52;0.10;;;0.10;;
77148;SDS011;66122;47.130;16.844;2024-01-15T02:39:55;0.10;;;0.10;;
77148;SDS011;66122;47.130;16.844;2024-01-15T02:49:58;0.10;;;0.10;;
77148;SDS011;66122;47.130;16.844;2024-01-15T03:00:00;0.10;;;0.00;;
77148;SDS011;66122;47.130;16.844;2024-01-15T03:10:04;0.20;;;0.10;;
77148;SDS011;66122;47.130;16.844;2024-01-15T03:20:08;0.20;;;0.10;;
77148;SDS011;66122;47.130;16.844;2024-01-15T03:30:11;0.20;;;0.10;;
77148;SDS011;66122;47.130;16.844;2024-01-15T03:40:14;0.10;;;0.10;;
77148;SDS011;66122;47.130;16.844;2024-01-15T03:50:21;0.10;;;0.10;;
77148;SDS011;66122;47.130;16.844;2024-01-15T04:00:23;0.10;;;0.10;;
77148;SDS011;66122;47.130;16.844;2024-01-15T04:10:26;0.20;;;0.10;;
77148;SDS011;66122;47.130;16.844;2024-01-15T04:20:28;0.10;;;0.10;;
77148;SDS011;66122;47.130;16.844;2024-01-15T04:30:31;0.10;;;0.10;;
77148;SDS011;66122;47.130;16.844;2024-01-15T04:40:33;0.10;;;0.10;;
77148;SDS011;66122;47.130;16.844;2024-01-15T04:50:36;0.20;;;0.10;;
77148;SDS011;66122;47.130;16.844;2024-01-15T05:00:39;0.10;;;0.10;;
77148;SDS011;66122;47.130;16.844;2024-01-15T05:10:41;0.20;;;0.10;;
77148;SDS011;66122;47.130;16.844;2024-01-15T05:20:44;0.22;;;0.10;;
77148;SDS011;66122;47.130;16.844;2024-01-15T05:30:46;0.20;;;0.10;;
77148;SDS011;66122;47.130;16.844;2024-01-15T05:40:49;0.10;;;0.10;;
77148;SDS011;66122;47.130;16.844;2024-01-15T05:50:52;0.10;;;0.10;;
77148;SDS011;66122;47.130;16.844;2024-01-15T06:00:54;0.20;;;0.10;;
77148;SDS011;66122;47.130;16.844;2024-01-15T06:10:57;0.10;;;0.10;;
77148;SDS011;66122;47.130;16.844;2024-01-15T06:21:03;0.10;;;0.00;;
77148;SDS011;66122;47.130;16.844;2024-01-15T06:31:08;0.20;;;0.10;;
77148;SDS011;66122;47.130;16.844;2024-01-15T06:41:11;0.20;;;0.10;;
77148;SDS011;66122;47.130;16.844;2024-01-15T06:51:15;0.20;;;0.10;;
77148;SDS011;66122;47.130;16.844;2024-01-15T07:01:20;0.13;;;0.10;;
77148;SDS011;66122;47.130;16.844;2024-01-15T07:11:23;0.30;;;0.10;;
77148;SDS011;66122;47.130;16.844;2024-01-15T07:21:26;0.10;;;0.10;;
77148;SDS011;66122;47.130;16.844;2024-01-15T07:31:28;0.10;;;0.10;;
77148;SDS011;66122;47.130;16.844;2024-01-15T07:41:31;0.10;;;0.10;;
77148;SDS011;66122;47.130;16.844;2024-01-15T07:51:34;0.20;;;0.10;;
77148;SDS011;66122;47.130;16.844;2024-01-15T08:01:37;0.10;;;0.10;;
77148;SDS011;66122;47.130;16.844;2024-01-15T08:11:39;0.20;;;0.10;;
77148;SDS011;66122;47.130;16.844;2024-01-15T08:21:44;0.17;;;0.10;;
77148;SDS011;66122;47.130;16.844;2024-01-15T08:31:47;0.20;;;0.10;;
77148;SDS011;66122;47.130;16.844;2024-01-15T08:41:50;0.20;;;0.10;;
77148;SDS011;66122;47.130;16.844;2024-01-15T08:51:52;0.30;;;0.17;;
77148;SDS011;66122;47.130;16.844;2024-01-15T09:01:55;0.30;;;0.10;;
77148;SDS011;66122;47.130;16.844;2024-01-15T09:12:00;0.30;;;0.20;;
77148;SDS011;66122;47.130;16.844;2024-01-15T09:22:03;0.30;;;0.10;;
77148;SDS011;66122;47.130;16.844;2024-01-15T09:32:06;0.30;;;0.10;;
77148;SDS011;66122;47.130;16.844;2024-01-15T09:42:09;0.30;;;0.10;;
77148;SDS011;66122;47.130;16.844;2024-01-15T09:52:13;0.30;;;0.20;;
77148;SDS011;66122;47.130;16.844;2024-01-15T10:02:18;0.30;;;0.20;;
77148;SDS011;66122;47.130;16.844;2024-01-15T10:12:24;0.30;;;0.20;;
77148;SDS011;66122;47.130;16.844;2024-01-15T10:22:29;0.30;;;0.20;;
77148;SDS011;66122;47.130;16.844;2024-01-15T10:32:32;0.50;;;0.35;;
77148;SDS011;66122;47.130;16.844;2024-01-15T10:42:35;0.40;;;0.23;;
77148;SDS011;66122;47.130;16.844;2024-01-15T10:52:38;0.50;;;0.33;;
77148;SDS011;66122;47.130;16.844;2024-01-15T11:02:51;0.30;;;0.20;;
77148;SDS011;66122;47.130;16.844;2024-01-15T11:12:58;0.60;;;0.50;;
77148;SDS011;66122;47.130;16.844;2024-01-15T11:23:00;0.43;;;0.30;;
77148;SDS011;66122;47.130;16.844;2024-01-15T11:33:03;0.60;;;0.47;;
77148;SDS011;66122;47.130;16.844;2024-01-15T11:43:06;0.50;;;0.30;;
77148;SDS011;66122;47.130;16.844;2024-01-15T11:53:13;0.70;;;0.67;;
77148;SDS011;66122;47.130;16.844;2024-01-15T12:03:21;0.60;;;0.43;;
77148;SDS011;66122;47.130;16.844;2024-01-15T12:13:24;0.60;;;0.40;;
77148;SDS011;66122;47.130;16.844;2024-01-15T12:23:27;0.50;;;0.37;;
77148;SDS011;66122;47.130;16.844;2024-01-15T12:33:30;0.60;;;0.50;;
77148;SDS011;66122;47.130;16.844;2024-01-15T12:43:32;0.50;;;0.40;;
77148;SDS011;66122;47.130;16.844;2024-01-15T12:53:35;0.57;;;0.40;;
77148;SDS011;66122;47.130;16.844;2024-01-15T13:03:40;0.40;;;0.30;;
77148;SDS011;66122;47.130;16.844;2024-01-15T13:13:44;0.57;;;0.43;;
77148;SDS011;66122;47.130;16.844;2024-01-15T13:23:47;0.40;;;0.30;;
77148;SDS011;66122;47.130;16.844;2024-01-15T13:33:50;0.53;;;0.40;;
77148;SDS011;66122;47.130;16.844;2024-01-15T13:43:53;0.32;;;0.20;;
77148;SDS011;66122;47.130;16.844;2024-01-15T13:53:57;0.50;;;0.37;;
77148;SDS011;66122;47.130;16.844;2024-01-15T14:04:00;0.30;;;0.20;;
77148;SDS011;66122;47.130;16.844;2024-01-15T14:14:03;0.50;;;0.40;;
77148;SDS011;66122;47.130;16.844;2024-01-15T14:24:11;0.20;;;0.10;;
77148;SDS011;66122;47.130;16.844;2024-01-15T14:34:14;0.30;;;0.20;;
77148;SDS011;66122;47.130;16.844;2024-01-15T14:44:18;0.30;;;0.10;;
77148;SDS011;66122;47.130;16.844;2024-01-15T14:54:20;0.38;;;0.20;;
77148;SDS011;66122;47.130;16.844;2024-01-15T15:04:26;0.20;;;0.10;;
77148;SDS011;66122;47.130;16.844;2024-01-15T15:14:29;0.40;;;0.20;;
77148;SDS011;66122;47.130;16.844;2024-01-15T15:24:31;0.30;;;0.10;;
77148;SDS011;66122;47.130;16.844;2024-01-15T15:34:35;0.40;;;0.20;;
77148;SDS011;66122;47.130;16.844;2024-01-15T15:44:38;0.30;;;0.10;;
77148;SDS011;66122;47.130;16.844;2024-01-15T15:54:45;0.50;;;0.30;;
77148;SDS011;66122;47.130;16.844;2024-01-15T16:04:49;0.30;;;0.10;;
77148;SDS011;66122;47.130;16.844;2024-01-15T16:14:52;0.20;;;0.10;;
77148;SDS011;66122;47.130;16.844;2024-01-15T16:24:55;0.20;;;0.10;;
77148;SDS011;66122;47.130;16.844;2024-01-15T16:35:03;0.20;;;0.10;;
77148;SDS011;66122;47.130;16.844;2024-01-15T16:45:06;0.20;;;0.10;;
77148;SDS011;66122;47.130;16.844;2024-01-15T16:55:09;0.20;;;0.10;;
77148;SDS011;66122;47.130;16.844;2024-01-15T17:05:11;0.30;;;0.10;;
77148;SDS011;66122;47.130;16.844;2024-01-15T17:15:14;0.20;;;0.10;;
77148;SDS011;66122;47.130;16.844;2024-01-15T17:25:17;0.20;;;0.10;;
77148;SDS011;66122;47.130;16.844;2024-01-15T17:35:19;0.30;;;0.10;;
77148;SDS011;66122;47.130;16.844;2024-01-15T17:45:22;0.25;;;0.10;;
77148;SDS011;66122;47.130;16.844;2024-01-15T17:55:26;0.20;;;0.10;;
77148;SDS011;66122;47.130;16.844;2024-01-15T18:05:29;0.20;;;0.10;;
77148;SDS011;66122;47.130;16.844;2024-01-15T18:15:32;0.38;;;0.20;;
77148;SDS011;66122;47.130;16.844;2024-01-15T18:25:35;0.30;;;0.10;;
77148;SDS011;66122;47.130;16.844;2024-01-15T18:35:38;0.30;;;0.20;;
77148;SDS011;66122;47.130;16.844;2024-01-15T18:45:40;0.30;;;0.10;;
77148;SDS011;66122;47.130;16.844;2024-01-15T18:55:43;0.20;;;0.10;;
77148;SDS011;66122;47.130;16.844;2024-01-15T19:05:46;0.20;;;0.10;;
77148;SDS011;66122;47.130;16.844;2024-01-15T19:15:49;0.20;;;0.10;;
77148;SDS011;66122;47.130;16.844;2024-01-15T19:25:52;0.20;;;0.10;;
77148;SDS011;66122;47.130;16.844;2024-01-15T19:35:55;0.30;;;0.10;;
77148;SDS011;66122;47.130;16.844;2024-01-15T19:46:01;0.20;;;0.10;;
77148;SDS011;66122;47.130;16.844;2024-01-15T19:56:03;0.40;;;0.20;;
77148;SDS011;66122;47.130;16.844;2024-01-15T20:06:07;0.30;;;0.13;;
77148;SDS011;66122;47.130;16.844;2024-01-15T20:16:14;0.30;;;0.10;;
77148;SDS011;66122;47.130;16.844;2024-01-15T20:26:17;0.20;;;0.10;;
77148;SDS011;66122;47.130;16.844;2024-01-15T20:36:20;0.20;;;0.10;;
77148;SDS011;66122;47.130;16.844;2024-01-15T20:46:23;0.20;;;0.10;;
77148;SDS011;66122;47.130;16.844;2024-01-15T20:56:26;0.20;;;0.10;;
77148;SDS011;66122;47.130;16.844;2024-01-15T21:06:29;0.20;;;0.10;;
77148;SDS011;66122;47.130;16.844;2024-01-15T21:16:33;0.30;;;0.10;;
77148;SDS011;66122;47.130;16.844;2024-01-15T21:26:36;0.20;;;0.10;;
77148;SDS011;66122;47.130;16.844;2024-01-15T21:36:39;0.40;;;0.20;;
77148;SDS011;66122;47.130;16.844;2024-01-15T21:46:41;0.20;;;0.10;;
77148;SDS011;66122;47.130;16.844;2024-01-15T21:56:44;0.30;;;0.17;;
77148;SDS011;66122;47.130;16.844;2024-01-15T22:06:47;0.20;;;0.10;;
77148;SDS011;66122;47.130;16.844;2024-01-15T22:16:49;0.30;;;0.20;;
77148;SDS011;66122;47.130;16.844;2024-01-15T22:26:52;0.20;;;0.10;;
77148;SDS011;66122;47.130;16.844;2024-01-15T22:36:55;0.20;;;0.10;;
77148;SDS011;66122;47.130;16.844;2024-01-15T22:46:58;0.20;;;0.10;;
77148;SDS011;66122;47.130;16.844;2024-01-15T22:57:00;0.20;;;0.10;;
77148;SDS011;66122;47.130;16.844;2024-01-15T23:07:02;0.20;;;0.10;;
77148;SDS011;66122;47.130;16.844;2024-01-15T23:17:06;0.20;;;0.10;;
77148;SDS011;66122;47.130;16.844;2024-01-15T23:27:08;0.20;;;0.10;;
77148;SDS011;66122;47.130;16.844;2024-01-15T23:37:12;0.30;;;0.20;;
77148;SDS011;66122;47.130;16.844;2024-01-15T23:47:14;0.20;;;0.10;;
77148;SDS011;66122;47.130;16.844;2024-01-15T23:57:17;0.20;;;0.10;;
